sensor_id;sensor_type;location;lat;lon;timestamp;temperature;humidity
30244;DHT22;64022;53.652;9.792;2023-12-20T00:00:46;23.00;63.10
30244;DHT22;64022;53.652;9.792;2023-12-20T00:03:12;22.90;63.40
30244;DHT22;64022;53.652;9.792;2023-12-20T00:05:37;23.00;62.80
30244;DHT22;64022;53.652;9.792;2023-12-20T00:08:06;23.00;62.90
30244;DHT22;64022;53.652;9.792;2023-12-20T00:10:31;23.00;62.90
30244;DHT22;64022;53.652;9.792;2023-12-20T00:12:57;23.00;63.60
30244;DHT22;64022;53.652;9.792;2023-12-20T00:15:23;22.90;62.80
30244;DHT22;64022;53.652;9.792;2023-12-20T00:17:48;23.00;63.00
30244;DHT22;64022;53.652;9.792;2023-12-20T00:20:14;23.10;63.00
30244;DHT22;64022;53.652;9.792;2023-12-20T00:22:39;23.00;62.80
30244;DHT22;64022;53.652;9.792;2023-12-20T00:25:05;23.00;62.80
30244;DHT22;64022;53.652;9.792;2023-12-20T00:27:30;22.90;62.90
30244;DHT22;64022;53.652;9.792;2023-12-20T00:29:56;23.00;62.90
30244;DHT22;64022;53.652;9.792;2023-12-20T00:32:21;23.00;62.80
30244;DHT22;64022;53.652;9.792;2023-12-20T00:34:47;23.00;62.90
30244;DHT22;64022;53.652;9.792;2023-12-20T00:37:13;23.00;62.90
30244;DHT22;64022;53.652;9.792;2023-12-20T00:39:38;23.00;62.90
30244;DHT22;64022;53.652;9.792;2023-12-20T00:42:04;23.00;62.90
30244;DHT22;64022;53.652;9.792;2023-12-20T00:44:29;22.90;62.80
30244;DHT22;64022;53.652;9.792;2023-12-20T00:46:55;23.00;62.80
30244;DHT22;64022;53.652;9.792;2023-12-20T00:49:20;23.00;63.00
30244;DHT22;64022;53.652;9.792;2023-12-20T00:51:46;23.00;62.90
30244;DHT22;64022;53.652;9.792;2023-12-20T00:54:13;23.00;62.80
30244;DHT22;64022;53.652;9.792;2023-12-20T00:56:39;23.00;62.80
30244;DHT22;64022;53.652;9.792;2023-12-20T00:59:04;23.00;62.80
30244;DHT22;64022;53.652;9.792;2023-12-20T01:01:29;23.00;63.30
30244;DHT22;64022;53.652;9.792;2023-12-20T01:03:55;23.00;62.80
30244;DHT22;64022;53.652;9.792;2023-12-20T01:06:21;22.90;62.70
30244;DHT22;64022;53.652;9.792;2023-12-20T01:08:46;23.00;62.80
30244;DHT22;64022;53.652;9.792;2023-12-20T01:11:12;23.00;62.80
30244;DHT22;64022;53.652;9.792;2023-12-20T01:13:37;23.00;63.10
30244;DHT22;64022;53.652;9.792;2023-12-20T01:16:03;23.00;63.00
30244;DHT22;64022;53.652;9.792;2023-12-20T01:18:29;22.90;62.90
30244;DHT22;64022;53.652;9.792;2023-12-20T01:20:55;23.00;62.80
30244;DHT22;64022;53.652;9.792;2023-12-20T01:23:20;23.00;63.00
30244;DHT22;64022;53.652;9.792;2023-12-20T01:25:46;23.00;62.90
30244;DHT22;64022;53.652;9.792;2023-12-20T01:28:11;23.00;62.90
30244;DHT22;64022;53.652;9.792;2023-12-20T01:30:37;23.00;63.00
30244;DHT22;64022;53.652;9.792;2023-12-20T01:33:03;23.00;62.80
30244;DHT22;64022;53.652;9.792;2023-12-20T01:35:28;23.00;62.80
30244;DHT22;64022;53.652;9.792;2023-12-20T01:37:54;23.00;62.80
30244;DHT22;64022;53.652;9.792;2023-12-20T01:40:22;23.00;62.80
30244;DHT22;64022;53.652;9.792;2023-12-20T01:42:57;23.00;62.80
30244;DHT22;64022;53.652;9.792;2023-12-20T01:45:23;23.00;62.80
30244;DHT22;64022;53.652;9.792;2023-12-20T01:47:48;23.00;62.90
30244;DHT22;64022;53.652;9.792;2023-12-20T01:50:14;23.00;62.80
30244;DHT22;64022;53.652;9.792;2023-12-20T01:52:41;23.00;62.80
30244;DHT22;64022;53.652;9.792;2023-12-20T01:55:07;23.00;62.60
30244;DHT22;64022;53.652;9.792;2023-12-20T01:57:39;22.90;62.60
30244;DHT22;64022;53.652;9.792;2023-12-20T02:00:05;22.90;62.60
30244;DHT22;64022;53.652;9.792;2023-12-20T02:02:35;22.90;62.70
30244;DHT22;64022;53.652;9.792;2023-12-20T02:05:02;23.00;62.80
30244;DHT22;64022;53.652;9.792;2023-12-20T02:07:30;22.90;62.90
30244;DHT22;64022;53.652;9.792;2023-12-20T02:09:56;22.90;62.80
30244;DHT22;64022;53.652;9.792;2023-12-20T02:12:22;23.00;62.80
30244;DHT22;64022;53.652;9.792;2023-12-20T02:14:48;22.90;62.50
30244;DHT22;64022;53.652;9.792;2023-12-20T02:17:14;22.90;62.90
30244;DHT22;64022;53.652;9.792;2023-12-20T02:19:39;22.90;62.30
30244;DHT22;64022;53.652;9.792;2023-12-20T02:22:08;22.90;62.50
30244;DHT22;64022;53.652;9.792;2023-12-20T02:24:34;22.90;62.10
30244;DHT22;64022;53.652;9.792;2023-12-20T02:26:59;22.90;62.20
30244;DHT22;64022;53.652;9.792;2023-12-20T02:29:25;22.90;62.30
30244;DHT22;64022;53.652;9.792;2023-12-20T02:31:51;22.90;62.30
30244;DHT22;64022;53.652;9.792;2023-12-20T02:34:16;22.90;62.20
30244;DHT22;64022;53.652;9.792;2023-12-20T02:36:43;22.90;62.10
30244;DHT22;64022;53.652;9.792;2023-12-20T02:39:08;22.90;62.10
30244;DHT22;64022;53.652;9.792;2023-12-20T02:41:34;22.90;62.10
30244;DHT22;64022;53.652;9.792;2023-12-20T02:44:01;22.90;62.20
30244;DHT22;64022;53.652;9.792;2023-12-20T02:46:27;22.90;62.10
30244;DHT22;64022;53.652;9.792;2023-12-20T02:48:52;22.90;62.00
30244;DHT22;64022;53.652;9.792;2023-12-20T02:51:18;22.90;62.20
30244;DHT22;64022;53.652;9.792;2023-12-20T02:53:43;22.90;62.10
30244;DHT22;64022;53.652;9.792;2023-12-20T02:56:09;22.90;62.10
30244;DHT22;64022;53.652;9.792;2023-12-20T02:58:34;23.00;62.20
30244;DHT22;64022;53.652;9.792;2023-12-20T03:01:00;22.90;62.30
30244;DHT22;64022;53.652;9.792;2023-12-20T03:03:25;22.90;62.40
30244;DHT22;64022;53.652;9.792;2023-12-20T03:05:52;23.10;62.40
30244;DHT22;64022;53.652;9.792;2023-12-20T03:08:17;22.90;62.20
30244;DHT22;64022;53.652;9.792;2023-12-20T03:10:43;22.90;62.00
30244;DHT22;64022;53.652;9.792;2023-12-20T03:13:09;22.90;61.70
30244;DHT22;64022;53.652;9.792;2023-12-20T03:15:34;22.90;61.90
30244;DHT22;64022;53.652;9.792;2023-12-20T03:18:00;22.90;62.00
30244;DHT22;64022;53.652;9.792;2023-12-20T03:20:25;23.00;62.10
30244;DHT22;64022;53.652;9.792;2023-12-20T03:22:54;22.90;62.30
30244;DHT22;64022;53.652;9.792;2023-12-20T03:25:19;23.00;62.00
30244;DHT22;64022;53.652;9.792;2023-12-20T03:27:45;22.90;61.50
30244;DHT22;64022;53.652;9.792;2023-12-20T03:30:10;22.90;61.30
30244;DHT22;64022;53.652;9.792;2023-12-20T03:32:37;22.90;61.40
30244;DHT22;64022;53.652;9.792;2023-12-20T03:35:02;23.00;61.30
30244;DHT22;64022;53.652;9.792;2023-12-20T03:37:28;22.90;61.40
30244;DHT22;64022;53.652;9.792;2023-12-20T03:39:53;22.90;61.40
30244;DHT22;64022;53.652;9.792;2023-12-20T03:42:19;22.90;61.30
30244;DHT22;64022;53.652;9.792;2023-12-20T03:44:44;23.00;61.40
30244;DHT22;64022;53.652;9.792;2023-12-20T03:47:10;22.90;61.40
30244;DHT22;64022;53.652;9.792;2023-12-20T03:49:35;23.00;61.50
30244;DHT22;64022;53.652;9.792;2023-12-20T03:52:02;22.90;61.30
30244;DHT22;64022;53.652;9.792;2023-12-20T03:54:28;22.90;61.20
30244;DHT22;64022;53.652;9.792;2023-12-20T03:56:54;22.90;61.20
30244;DHT22;64022;53.652;9.792;2023-12-20T03:59:19;22.90;61.20
30244;DHT22;64022;53.652;9.792;2023-12-20T04:01:45;22.90;61.10
30244;DHT22;64022;53.652;9.792;2023-12-20T04:04:11;22.90;61.10
30244;DHT22;64022;53.652;9.792;2023-12-20T04:06:37;22.90;61.10
30244;DHT22;64022;53.652;9.792;2023-12-20T04:09:03;22.90;61.20
30244;DHT22;64022;53.652;9.792;2023-12-20T04:11:28;22.90;61.30
30244;DHT22;64022;53.652;9.792;2023-12-20T04:13:54;22.90;61.00
30244;DHT22;64022;53.652;9.792;2023-12-20T04:16:19;22.90;61.00
30244;DHT22;64022;53.652;9.792;2023-12-20T04:18:45;22.90;61.20
30244;DHT22;64022;53.652;9.792;2023-12-20T04:21:11;22.90;61.10
30244;DHT22;64022;53.652;9.792;2023-12-20T04:23:36;22.90;61.10
30244;DHT22;64022;53.652;9.792;2023-12-20T04:26:02;23.00;61.10
30244;DHT22;64022;53.652;9.792;2023-12-20T04:28:27;22.90;61.20
30244;DHT22;64022;53.652;9.792;2023-12-20T04:30:55;22.90;61.00
30244;DHT22;64022;53.652;9.792;2023-12-20T04:33:21;22.90;61.10
30244;DHT22;64022;53.652;9.792;2023-12-20T04:35:47;22.90;61.30
30244;DHT22;64022;53.652;9.792;2023-12-20T04:38:12;22.90;61.30
30244;DHT22;64022;53.652;9.792;2023-12-20T04:40:38;22.90;61.20
30244;DHT22;64022;53.652;9.792;2023-12-20T04:43:05;22.90;61.30
30244;DHT22;64022;53.652;9.792;2023-12-20T04:45:31;22.90;61.30
30244;DHT22;64022;53.652;9.792;2023-12-20T04:47:56;22.90;61.30
30244;DHT22;64022;53.652;9.792;2023-12-20T04:50:22;23.00;61.10
30244;DHT22;64022;53.652;9.792;2023-12-20T04:52:47;22.90;61.20
30244;DHT22;64022;53.652;9.792;2023-12-20T04:55:13;22.90;61.20
30244;DHT22;64022;53.652;9.792;2023-12-20T04:57:39;22.90;61.10
30244;DHT22;64022;53.652;9.792;2023-12-20T05:00:04;22.90;61.20
30244;DHT22;64022;53.652;9.792;2023-12-20T05:02:30;22.90;61.30
30244;DHT22;64022;53.652;9.792;2023-12-20T05:04:56;22.90;61.30
30244;DHT22;64022;53.652;9.792;2023-12-20T05:07:21;22.90;61.30
30244;DHT22;64022;53.652;9.792;2023-12-20T05:09:47;22.90;61.20
30244;DHT22;64022;53.652;9.792;2023-12-20T05:12:12;22.90;61.10
30244;DHT22;64022;53.652;9.792;2023-12-20T05:14:38;22.90;61.10
30244;DHT22;64022;53.652;9.792;2023-12-20T05:17:03;22.90;61.30
30244;DHT22;64022;53.652;9.792;2023-12-20T05:19:29;22.90;61.30
30244;DHT22;64022;53.652;9.792;2023-12-20T05:21:54;22.90;61.20
30244;DHT22;64022;53.652;9.792;2023-12-20T05:24:20;22.90;61.30
30244;DHT22;64022;53.652;9.792;2023-12-20T05:26:45;22.90;61.30
30244;DHT22;64022;53.652;9.792;2023-12-20T05:29:11;22.90;61.40
30244;DHT22;64022;53.652;9.792;2023-12-20T05:31:37;22.90;61.50
30244;DHT22;64022;53.652;9.792;2023-12-20T05:34:02;22.90;61.50
30244;DHT22;64022;53.652;9.792;2023-12-20T05:36:28;22.90;61.40
30244;DHT22;64022;53.652;9.792;2023-12-20T05:38:54;22.80;61.40
30244;DHT22;64022;53.652;9.792;2023-12-20T05:41:19;23.00;61.40
30244;DHT22;64022;53.652;9.792;2023-12-20T05:43:46;22.90;61.50
30244;DHT22;64022;53.652;9.792;2023-12-20T05:46:12;22.90;61.40
30244;DHT22;64022;53.652;9.792;2023-12-20T05:48:38;22.90;61.40
30244;DHT22;64022;53.652;9.792;2023-12-20T05:51:03;22.90;61.40
30244;DHT22;64022;53.652;9.792;2023-12-20T05:53:29;22.90;61.20
30244;DHT22;64022;53.652;9.792;2023-12-20T05:55:54;22.90;61.20
30244;DHT22;64022;53.652;9.792;2023-12-20T05:58:20;22.80;61.00
30244;DHT22;64022;53.652;9.792;2023-12-20T06:00:45;22.90;60.70
30244;DHT22;64022;53.652;9.792;2023-12-20T06:03:11;22.90;60.70
30244;DHT22;64022;53.652;9.792;2023-12-20T06:05:36;22.90;60.50
30244;DHT22;64022;53.652;9.792;2023-12-20T06:08:02;23.00;60.70
30244;DHT22;64022;53.652;9.792;2023-12-20T06:10:28;22.90;60.80
30244;DHT22;64022;53.652;9.792;2023-12-20T06:12:54;22.90;60.70
30244;DHT22;64022;53.652;9.792;2023-12-20T06:15:19;23.00;60.80
30244;DHT22;64022;53.652;9.792;2023-12-20T06:17:45;22.90;60.80
30244;DHT22;64022;53.652;9.792;2023-12-20T06:20:12;22.90;60.70
30244;DHT22;64022;53.652;9.792;2023-12-20T06:22:38;22.80;60.60
30244;DHT22;64022;53.652;9.792;2023-12-20T06:25:05;22.90;60.90
30244;DHT22;64022;53.652;9.792;2023-12-20T06:27:30;22.80;60.70
30244;DHT22;64022;53.652;9.792;2023-12-20T06:29:57;22.90;60.70
30244;DHT22;64022;53.652;9.792;2023-12-20T06:32:23;22.80;60.60
30244;DHT22;64022;53.652;9.792;2023-12-20T06:34:49;22.90;60.60
30244;DHT22;64022;53.652;9.792;2023-12-20T06:37:15;22.90;60.60
30244;DHT22;64022;53.652;9.792;2023-12-20T06:39:40;22.80;60.60
30244;DHT22;64022;53.652;9.792;2023-12-20T06:42:06;22.80;60.40
30244;DHT22;64022;53.652;9.792;2023-12-20T06:44:32;22.90;60.50
30244;DHT22;64022;53.652;9.792;2023-12-20T06:46:57;22.90;60.50
30244;DHT22;64022;53.652;9.792;2023-12-20T06:49:23;22.90;60.50
30244;DHT22;64022;53.652;9.792;2023-12-20T06:51:48;22.90;60.50
30244;DHT22;64022;53.652;9.792;2023-12-20T06:54:14;22.90;60.50
30244;DHT22;64022;53.652;9.792;2023-12-20T06:56:39;22.90;60.50
30244;DHT22;64022;53.652;9.792;2023-12-20T06:59:06;22.90;60.50
30244;DHT22;64022;53.652;9.792;2023-12-20T07:01:32;22.80;60.50
30244;DHT22;64022;53.652;9.792;2023-12-20T07:03:57;22.80;60.60
30244;DHT22;64022;53.652;9.792;2023-12-20T07:06:23;22.90;60.40
30244;DHT22;64022;53.652;9.792;2023-12-20T07:08:49;22.90;60.50
30244;DHT22;64022;53.652;9.792;2023-12-20T07:11:14;23.00;60.50
30244;DHT22;64022;53.652;9.792;2023-12-20T07:13:40;22.90;60.40
30244;DHT22;64022;53.652;9.792;2023-12-20T07:16:05;22.80;60.20
30244;DHT22;64022;53.652;9.792;2023-12-20T07:18:31;22.90;60.30
30244;DHT22;64022;53.652;9.792;2023-12-20T07:20:56;22.90;60.90
30244;DHT22;64022;53.652;9.792;2023-12-20T07:23:22;22.90;60.40
30244;DHT22;64022;53.652;9.792;2023-12-20T07:25:47;22.90;60.50
30244;DHT22;64022;53.652;9.792;2023-12-20T07:28:13;22.90;60.50
30244;DHT22;64022;53.652;9.792;2023-12-20T07:30:38;22.90;60.60
30244;DHT22;64022;53.652;9.792;2023-12-20T07:33:04;22.80;59.20
30244;DHT22;64022;53.652;9.792;2023-12-20T07:35:30;22.70;58.20
30244;DHT22;64022;53.652;9.792;2023-12-20T07:37:55;22.60;57.80
30244;DHT22;64022;53.652;9.792;2023-12-20T07:40:20;22.40;58.30
30244;DHT22;64022;53.652;9.792;2023-12-20T07:42:46;22.40;58.50
30244;DHT22;64022;53.652;9.792;2023-12-20T07:45:11;22.30;58.50
30244;DHT22;64022;53.652;9.792;2023-12-20T07:47:37;22.30;59.40
30244;DHT22;64022;53.652;9.792;2023-12-20T07:50:02;22.30;58.80
30244;DHT22;64022;53.652;9.792;2023-12-20T07:52:29;22.40;58.90
30244;DHT22;64022;53.652;9.792;2023-12-20T07:54:54;22.40;59.00
30244;DHT22;64022;53.652;9.792;2023-12-20T07:57:20;22.40;59.20
30244;DHT22;64022;53.652;9.792;2023-12-20T07:59:45;22.50;59.40
30244;DHT22;64022;53.652;9.792;2023-12-20T08:02:11;22.50;59.40
30244;DHT22;64022;53.652;9.792;2023-12-20T08:04:37;22.50;59.40
30244;DHT22;64022;53.652;9.792;2023-12-20T08:07:03;22.50;59.30
30244;DHT22;64022;53.652;9.792;2023-12-20T08:09:28;22.60;59.40
30244;DHT22;64022;53.652;9.792;2023-12-20T08:11:54;22.70;59.60
30244;DHT22;64022;53.652;9.792;2023-12-20T08:14:20;22.60;59.30
30244;DHT22;64022;53.652;9.792;2023-12-20T08:16:45;22.60;59.40
30244;DHT22;64022;53.652;9.792;2023-12-20T08:19:11;22.60;59.40
30244;DHT22;64022;53.652;9.792;2023-12-20T08:21:36;22.60;59.20
30244;DHT22;64022;53.652;9.792;2023-12-20T08:24:02;22.80;59.40
30244;DHT22;64022;53.652;9.792;2023-12-20T08:26:28;22.60;59.40
30244;DHT22;64022;53.652;9.792;2023-12-20T08:28:53;22.70;59.20
30244;DHT22;64022;53.652;9.792;2023-12-20T08:31:19;22.60;59.10
30244;DHT22;64022;53.652;9.792;2023-12-20T08:33:45;22.60;59.10
30244;DHT22;64022;53.652;9.792;2023-12-20T08:36:11;22.70;59.10
30244;DHT22;64022;53.652;9.792;2023-12-20T08:38:36;22.70;59.10
30244;DHT22;64022;53.652;9.792;2023-12-20T08:41:02;22.80;59.40
30244;DHT22;64022;53.652;9.792;2023-12-20T08:43:36;22.70;59.50
30244;DHT22;64022;53.652;9.792;2023-12-20T08:46:02;22.70;59.30
30244;DHT22;64022;53.652;9.792;2023-12-20T08:48:28;22.70;59.80
30244;DHT22;64022;53.652;9.792;2023-12-20T08:50:53;22.70;59.10
30244;DHT22;64022;53.652;9.792;2023-12-20T08:53:19;22.60;59.10
30244;DHT22;64022;53.652;9.792;2023-12-20T08:55:45;22.70;59.40
30244;DHT22;64022;53.652;9.792;2023-12-20T08:58:11;22.60;59.30
30244;DHT22;64022;53.652;9.792;2023-12-20T09:00:36;22.70;59.40
30244;DHT22;64022;53.652;9.792;2023-12-20T09:03:02;22.70;59.40
30244;DHT22;64022;53.652;9.792;2023-12-20T09:05:28;22.70;59.40
30244;DHT22;64022;53.652;9.792;2023-12-20T09:07:53;22.70;59.50
30244;DHT22;64022;53.652;9.792;2023-12-20T09:10:19;22.70;59.50
30244;DHT22;64022;53.652;9.792;2023-12-20T09:12:56;22.70;59.40
30244;DHT22;64022;53.652;9.792;2023-12-20T09:15:26;22.80;59.50
30244;DHT22;64022;53.652;9.792;2023-12-20T09:17:51;22.70;59.40
30244;DHT22;64022;53.652;9.792;2023-12-20T09:20:17;22.70;59.50
30244;DHT22;64022;53.652;9.792;2023-12-20T09:22:42;22.70;59.60
30244;DHT22;64022;53.652;9.792;2023-12-20T09:25:09;22.70;59.50
30244;DHT22;64022;53.652;9.792;2023-12-20T09:27:35;22.80;59.50
30244;DHT22;64022;53.652;9.792;2023-12-20T09:30:01;22.80;59.30
30244;DHT22;64022;53.652;9.792;2023-12-20T09:32:26;22.80;59.10
30244;DHT22;64022;53.652;9.792;2023-12-20T09:34:51;22.80;59.10
30244;DHT22;64022;53.652;9.792;2023-12-20T09:37:17;22.70;59.00
30244;DHT22;64022;53.652;9.792;2023-12-20T09:39:42;22.80;59.10
30244;DHT22;64022;53.652;9.792;2023-12-20T09:42:08;22.80;59.00
30244;DHT22;64022;53.652;9.792;2023-12-20T09:44:36;22.80;59.00
30244;DHT22;64022;53.652;9.792;2023-12-20T09:47:02;22.80;59.00
30244;DHT22;64022;53.652;9.792;2023-12-20T09:49:27;22.80;59.00
30244;DHT22;64022;53.652;9.792;2023-12-20T09:51:53;22.80;59.00
30244;DHT22;64022;53.652;9.792;2023-12-20T09:54:19;22.80;59.10
30244;DHT22;64022;53.652;9.792;2023-12-20T09:56:45;22.80;59.00
30244;DHT22;64022;53.652;9.792;2023-12-20T09:59:11;22.80;59.10
30244;DHT22;64022;53.652;9.792;2023-12-20T10:01:38;22.80;59.10
30244;DHT22;64022;53.652;9.792;2023-12-20T10:04:05;22.90;59.20
30244;DHT22;64022;53.652;9.792;2023-12-20T10:06:34;22.80;58.00
30244;DHT22;64022;53.652;9.792;2023-12-20T10:09:00;22.60;56.70
30244;DHT22;64022;53.652;9.792;2023-12-20T10:11:26;22.40;55.50
30244;DHT22;64022;53.652;9.792;2023-12-20T10:13:58;22.10;54.80
30244;DHT22;64022;53.652;9.792;2023-12-20T10:16:24;21.90;54.50
30244;DHT22;64022;53.652;9.792;2023-12-20T10:18:50;21.60;53.80
30244;DHT22;64022;53.652;9.792;2023-12-20T10:21:15;21.50;54.30
30244;DHT22;64022;53.652;9.792;2023-12-20T10:23:41;21.40;54.90
30244;DHT22;64022;53.652;9.792;2023-12-20T10:26:06;21.50;55.40
30244;DHT22;64022;53.652;9.792;2023-12-20T10:28:35;21.50;55.80
30244;DHT22;64022;53.652;9.792;2023-12-20T10:31:00;21.50;55.80
30244;DHT22;64022;53.652;9.792;2023-12-20T10:33:26;21.60;56.30
30244;DHT22;64022;53.652;9.792;2023-12-20T10:35:52;21.60;56.40
30244;DHT22;64022;53.652;9.792;2023-12-20T10:38:18;21.70;56.60
30244;DHT22;64022;53.652;9.792;2023-12-20T10:40:45;21.70;56.70
30244;DHT22;64022;53.652;9.792;2023-12-20T10:43:10;21.80;56.80
30244;DHT22;64022;53.652;9.792;2023-12-20T10:45:36;21.80;56.90
30244;DHT22;64022;53.652;9.792;2023-12-20T10:48:02;21.90;57.00
30244;DHT22;64022;53.652;9.792;2023-12-20T10:50:28;21.90;56.90
30244;DHT22;64022;53.652;9.792;2023-12-20T10:52:55;21.90;57.10
30244;DHT22;64022;53.652;9.792;2023-12-20T10:55:24;22.00;57.10
30244;DHT22;64022;53.652;9.792;2023-12-20T10:58:06;22.00;57.20
30244;DHT22;64022;53.652;9.792;2023-12-20T11:00:32;22.10;57.30
30244;DHT22;64022;53.652;9.792;2023-12-20T11:03:00;22.10;57.40
30244;DHT22;64022;53.652;9.792;2023-12-20T11:07:52;22.20;57.40
30244;DHT22;64022;53.652;9.792;2023-12-20T11:10:21;22.20;57.40
30244;DHT22;64022;53.652;9.792;2023-12-20T11:12:58;22.20;57.50
30244;DHT22;64022;53.652;9.792;2023-12-20T11:15:27;22.20;57.40
30244;DHT22;64022;53.652;9.792;2023-12-20T11:17:57;22.20;57.50
30244;DHT22;64022;53.652;9.792;2023-12-20T11:20:24;22.30;57.60
30244;DHT22;64022;53.652;9.792;2023-12-20T11:22:53;22.30;57.40
30244;DHT22;64022;53.652;9.792;2023-12-20T11:25:19;22.30;57.40
30244;DHT22;64022;53.652;9.792;2023-12-20T11:27:46;22.40;57.60
30244;DHT22;64022;53.652;9.792;2023-12-20T11:30:40;22.40;57.60
30244;DHT22;64022;53.652;9.792;2023-12-20T11:33:07;22.40;57.70
30244;DHT22;64022;53.652;9.792;2023-12-20T11:35:33;22.40;57.60
30244;DHT22;64022;53.652;9.792;2023-12-20T11:38:00;22.40;57.60
30244;DHT22;64022;53.652;9.792;2023-12-20T11:40:26;22.50;57.80
30244;DHT22;64022;53.652;9.792;2023-12-20T11:42:52;22.50;57.60
30244;DHT22;64022;53.652;9.792;2023-12-20T11:45:20;22.50;57.70
30244;DHT22;64022;53.652;9.792;2023-12-20T11:47:47;22.50;57.70
30244;DHT22;64022;53.652;9.792;2023-12-20T11:50:15;22.50;57.70
30244;DHT22;64022;53.652;9.792;2023-12-20T11:52:40;22.60;57.70
30244;DHT22;64022;53.652;9.792;2023-12-20T11:55:06;22.50;57.70
30244;DHT22;64022;53.652;9.792;2023-12-20T11:57:32;22.60;57.70
30244;DHT22;64022;53.652;9.792;2023-12-20T11:59:57;22.60;57.90
30244;DHT22;64022;53.652;9.792;2023-12-20T12:02:23;22.60;57.80
30244;DHT22;64022;53.652;9.792;2023-12-20T12:04:49;22.60;57.90
30244;DHT22;64022;53.652;9.792;2023-12-20T12:07:16;22.60;57.80
30244;DHT22;64022;53.652;9.792;2023-12-20T12:09:42;22.60;57.80
30244;DHT22;64022;53.652;9.792;2023-12-20T12:12:07;22.60;57.70
30244;DHT22;64022;53.652;9.792;2023-12-20T12:14:33;22.70;57.80
30244;DHT22;64022;53.652;9.792;2023-12-20T12:17:00;22.70;58.00
30244;DHT22;64022;53.652;9.792;2023-12-20T12:19:26;22.70;57.80
30244;DHT22;64022;53.652;9.792;2023-12-20T12:22:03;22.70;57.90
30244;DHT22;64022;53.652;9.792;2023-12-20T12:24:30;22.60;57.80
30244;DHT22;64022;53.652;9.792;2023-12-20T12:26:57;22.70;57.90
30244;DHT22;64022;53.652;9.792;2023-12-20T12:29:22;22.70;57.90
30244;DHT22;64022;53.652;9.792;2023-12-20T12:31:50;22.70;58.00
30244;DHT22;64022;53.652;9.792;2023-12-20T12:34:15;22.70;58.00
30244;DHT22;64022;53.652;9.792;2023-12-20T12:36:41;22.80;58.20
30244;DHT22;64022;53.652;9.792;2023-12-20T12:39:07;22.70;58.20
30244;DHT22;64022;53.652;9.792;2023-12-20T12:41:32;22.60;58.00
30244;DHT22;64022;53.652;9.792;2023-12-20T12:43:58;22.80;58.20
30244;DHT22;64022;53.652;9.792;2023-12-20T12:46:23;22.80;58.30
30244;DHT22;64022;53.652;9.792;2023-12-20T12:48:49;22.90;58.30
30244;DHT22;64022;53.652;9.792;2023-12-20T12:51:15;22.70;58.10
30244;DHT22;64022;53.652;9.792;2023-12-20T12:53:41;22.70;58.10
30244;DHT22;64022;53.652;9.792;2023-12-20T12:56:06;23.00;58.40
30244;DHT22;64022;53.652;9.792;2023-12-20T12:58:32;22.70;58.30
30244;DHT22;64022;53.652;9.792;2023-12-20T13:00:58;22.80;58.10
30244;DHT22;64022;53.652;9.792;2023-12-20T13:03:24;22.70;58.20
30244;DHT22;64022;53.652;9.792;2023-12-20T13:05:49;22.70;58.30
30244;DHT22;64022;53.652;9.792;2023-12-20T13:08:15;22.70;58.20
30244;DHT22;64022;53.652;9.792;2023-12-20T13:10:40;22.70;58.40
30244;DHT22;64022;53.652;9.792;2023-12-20T13:13:06;22.70;58.60
30244;DHT22;64022;53.652;9.792;2023-12-20T13:15:31;22.80;58.50
30244;DHT22;64022;53.652;9.792;2023-12-20T13:17:57;22.80;58.20
30244;DHT22;64022;53.652;9.792;2023-12-20T13:20:22;22.80;58.40
30244;DHT22;64022;53.652;9.792;2023-12-20T13:22:48;22.70;58.30
30244;DHT22;64022;53.652;9.792;2023-12-20T13:25:13;22.80;58.30
30244;DHT22;64022;53.652;9.792;2023-12-20T13:27:39;22.80;58.30
30244;DHT22;64022;53.652;9.792;2023-12-20T13:30:05;22.80;58.40
30244;DHT22;64022;53.652;9.792;2023-12-20T13:32:31;22.80;58.40
30244;DHT22;64022;53.652;9.792;2023-12-20T13:34:56;22.90;58.50
30244;DHT22;64022;53.652;9.792;2023-12-20T13:37:22;22.90;58.40
30244;DHT22;64022;53.652;9.792;2023-12-20T13:39:48;22.80;58.50
30244;DHT22;64022;53.652;9.792;2023-12-20T13:42:13;23.00;58.50
30244;DHT22;64022;53.652;9.792;2023-12-20T13:44:39;22.90;58.70
30244;DHT22;64022;53.652;9.792;2023-12-20T13:47:04;23.00;58.60
30244;DHT22;64022;53.652;9.792;2023-12-20T13:49:30;22.80;58.30
30244;DHT22;64022;53.652;9.792;2023-12-20T13:51:55;22.90;58.60
30244;DHT22;64022;53.652;9.792;2023-12-20T13:54:22;22.80;58.60
30244;DHT22;64022;53.652;9.792;2023-12-20T13:56:48;22.90;58.50
30244;DHT22;64022;53.652;9.792;2023-12-20T13:59:13;22.80;58.50
30244;DHT22;64022;53.652;9.792;2023-12-20T14:01:40;22.80;58.60
30244;DHT22;64022;53.652;9.792;2023-12-20T14:04:06;22.80;58.50
30244;DHT22;64022;53.652;9.792;2023-12-20T14:06:32;22.80;58.60
30244;DHT22;64022;53.652;9.792;2023-12-20T14:08:58;22.80;59.00
30244;DHT22;64022;53.652;9.792;2023-12-20T14:11:26;22.90;58.90
30244;DHT22;64022;53.652;9.792;2023-12-20T14:13:51;22.80;58.40
30244;DHT22;64022;53.652;9.792;2023-12-20T14:16:18;22.80;58.80
30244;DHT22;64022;53.652;9.792;2023-12-20T14:18:44;22.80;58.50
30244;DHT22;64022;53.652;9.792;2023-12-20T14:21:09;22.80;59.20
30244;DHT22;64022;53.652;9.792;2023-12-20T14:23:35;23.20;59.40
30244;DHT22;64022;53.652;9.792;2023-12-20T14:26:01;22.60;58.60
30244;DHT22;64022;53.652;9.792;2023-12-20T14:28:27;22.90;58.80
30244;DHT22;64022;53.652;9.792;2023-12-20T14:30:53;23.20;59.10
30244;DHT22;64022;53.652;9.792;2023-12-20T14:33:19;22.80;59.30
30244;DHT22;64022;53.652;9.792;2023-12-20T14:35:46;23.10;58.60
30244;DHT22;64022;53.652;9.792;2023-12-20T14:38:12;23.20;58.40
30244;DHT22;64022;53.652;9.792;2023-12-20T14:40:41;22.80;58.20
30244;DHT22;64022;53.652;9.792;2023-12-20T14:43:06;23.60;58.70
30244;DHT22;64022;53.652;9.792;2023-12-20T14:45:32;22.80;58.00
30244;DHT22;64022;53.652;9.792;2023-12-20T14:47:57;22.90;57.80
30244;DHT22;64022;53.652;9.792;2023-12-20T14:50:24;22.80;57.80
30244;DHT22;64022;53.652;9.792;2023-12-20T14:52:49;22.80;57.90
30244;DHT22;64022;53.652;9.792;2023-12-20T14:55:15;22.70;57.80
30244;DHT22;64022;53.652;9.792;2023-12-20T14:57:41;22.90;57.90
30244;DHT22;64022;53.652;9.792;2023-12-20T15:00:07;22.90;57.90
30244;DHT22;64022;53.652;9.792;2023-12-20T15:02:32;22.70;58.00
30244;DHT22;64022;53.652;9.792;2023-12-20T15:04:58;22.80;58.00
30244;DHT22;64022;53.652;9.792;2023-12-20T15:07:24;22.90;58.10
30244;DHT22;64022;53.652;9.792;2023-12-20T15:09:49;23.10;58.10
30244;DHT22;64022;53.652;9.792;2023-12-20T15:12:15;22.70;57.90
30244;DHT22;64022;53.652;9.792;2023-12-20T15:14:40;22.70;57.90
30244;DHT22;64022;53.652;9.792;2023-12-20T15:17:06;22.70;57.90
30244;DHT22;64022;53.652;9.792;2023-12-20T15:19:31;22.70;57.90
30244;DHT22;64022;53.652;9.792;2023-12-20T15:21:57;22.70;58.00
30244;DHT22;64022;53.652;9.792;2023-12-20T15:24:24;22.70;57.90